Aviation Digital Data Service (ADDS)

Output produced by METARs form (0731 UTC 22 August 2017)
found at http://aviationweather.gov/adds/metars/
 
KTOL 220538Z 2206/2306 22008KT P6SM SCT200 
     FM221000 22008KT P6SM -TSRA BKN040CB BKN200 
     FM221200 24010KT P6SM VCTS SCT040CB OVC080 
     FM222000 27013KT P6SM -SHRA VCTS SCT040CB BKN050 
     FM222300 29011KT P6SM FEW040 SCT100 
     FM230300 30007KT P6SM SKC